Time;durP1;ratioP1;P1;durP2;ratioP2;P2;SDS_P1;SDS_P2;PMS_P1;PMS_P2;Temp;Humidity;BMP_temperature;BMP_pressure;BME280_temperature;BME280_humidity;BME280_pressure;Samples;Min_cycle;Max_cycle;Signal;HPM_P1;HPM_P2
2023/08/22 00:03:56;;;;;;;4.63;3.45;;;;;;;24.80;50.21;100056.44;10547660;27;20230;-68
2023/08/22 00:08:59;;;;;;;6.28;3.90;;;;;;;24.42;50.98;100062.13;10551676;28;20278;-67
2023/08/22 00:14:00;;;;;;;5.03;3.58;;;;;;;24.73;50.57;100045.75;10546859;28;20218;-68
2023/08/22 00:19:03;;;;;;;5.90;3.58;;;;;;;26.45;47.62;100024.69;10548402;27;20229;-68
2023/08/22 00:24:05;;;;;;;5.22;3.35;;;;;;;26.16;47.86;100061.03;10541048;28;20599;-67
2023/08/22 00:29:07;;;;;;;4.88;3.72;;;;;;;25.43;49.17;100048.72;10542845;27;20301;-68
2023/08/22 00:34:09;;;;;;;4.72;3.63;;;;;;;25.22;49.51;100038.91;10539564;28;20226;-69
2023/08/22 00:39:11;;;;;;;5.63;3.75;;;;;;;25.67;49.08;100026.16;10539878;27;20233;-67
2023/08/22 00:44:12;;;;;;;6.57;3.75;;;;;;;26.65;46.98;100040.16;10545209;27;20708;-67
2023/08/22 00:49:14;;;;;;;5.00;3.38;;;;;;;26.07;47.78;100057.25;10542633;27;20790;-67
2023/08/22 00:54:18;;;;;;;3.33;3.03;;;;;;;24.94;50.46;100049.31;10544023;27;20329;-68
2023/08/22 00:59:20;;;;;;;8.15;3.25;;;;;;;24.60;50.43;100036.19;10542659;28;20844;-68
2023/08/22 01:04:22;;;;;;;6.65;3.28;;;;;;;26.45;46.97;100013.72;10538001;28;20242;-68
2023/08/22 01:09:35;;;;;;;7.18;3.50;;;;;;;23.80;51.93;100066.56;10546090;27;20351;-67
2023/08/22 01:14:43;;;;;;;5.03;3.05;;;;;;;24.94;49.80;100034.84;10545727;27;20364;-67
2023/08/22 01:19:45;;;;;;;3.33;3.03;;;;;;;24.34;50.30;100079.91;10544974;27;20234;-67
2023/08/22 01:24:47;;;;;;;4.57;3.20;;;;;;;24.00;51.51;100055.72;10541938;28;20585;-68
2023/08/22 01:29:58;;;;;;;5.88;3.05;;;;;;;25.87;47.85;100005.28;10540621;27;20340;-67
2023/08/22 01:35:02;;;;;;;6.72;3.40;;;;;;;25.89;48.26;100022.25;10547186;28;20222;-67
2023/08/22 01:40:06;;;;;;;4.28;3.05;;;;;;;26.49;47.06;100011.22;10541134;28;20229;-68
2023/08/22 01:45:08;;;;;;;4.18;3.00;;;;;;;26.84;46.31;100014.75;10544912;27;20962;-67
2023/08/22 01:50:10;;;;;;;3.97;3.15;;;;;;;25.50;48.18;100047.63;10541495;27;20230;-68
2023/08/22 01:55:14;;;;;;;4.07;3.03;;;;;;;24.59;49.49;100048.19;10541395;28;20226;-67
2023/08/22 02:00:16;;;;;;;3.22;2.80;;;;;;;27.09;45.65;99995.31;10535147;28;20217;-67
2023/08/22 02:05:17;;;;;;;4.15;3.00;;;;;;;26.73;46.12;99998.41;10539580;28;20238;-67
2023/08/22 02:10:19;;;;;;;3.38;3.03;;;;;;;26.62;46.30;100004.22;10540055;27;20211;-68
2023/08/22 02:15:21;;;;;;;2.83;2.53;;;;;;;25.28;48.52;100033.13;10544005;27;20650;-68
2023/08/22 02:20:24;;;;;;;4.32;2.95;;;;;;;25.26;48.24;100029.06;10534885;27;20207;-68
2023/08/22 02:25:26;;;;;;;4.20;3.22;;;;;;;26.99;45.82;99983.59;10538168;27;20237;-68
2023/08/22 02:30:28;;;;;;;5.13;3.30;;;;;;;26.74;45.41;99994.56;10536756;28;20252;-68
2023/08/22 02:35:30;;;;;;;3.83;2.92;;;;;;;24.86;48.97;100022.50;10537197;27;20226;-68
2023/08/22 02:40:32;;;;;;;5.93;3.33;;;;;;;26.94;45.54;99970.75;10540342;27;20253;-67
2023/08/22 02:45:34;;;;;;;6.32;2.67;;;;;;;26.98;45.20;99971.00;10538566;28;20247;-67
2023/08/22 02:50:36;;;;;;;5.07;2.72;;;;;;;25.83;47.16;99994.88;10535029;27;20240;-67
2023/08/22 02:55:38;;;;;;;3.80;2.72;;;;;;;25.74;47.52;99993.81;10538294;28;20232;-68
2023/08/22 03:00:40;;;;;;;4.20;2.85;;;;;;;26.36;46.21;99991.53;10538470;28;20708;-67
2023/08/22 03:05:41;;;;;;;3.38;3.00;;;;;;;26.46;46.22;99970.63;10541121;28;20249;-67
2023/08/22 03:10:43;;;;;;;4.55;2.90;;;;;;;26.49;46.31;99989.28;10541559;28;20326;-68
2023/08/22 03:15:45;;;;;;;4.05;2.88;;;;;;;26.47;46.45;99989.56;10538129;28;20380;-67
2023/08/22 03:20:47;;;;;;;4.50;2.80;;;;;;;26.26;46.63;99993.56;10534922;28;20265;-68
2023/08/22 03:26:10;;;;;;;3.65;2.83;;;;;;;24.50;49.66;100023.31;10539939;28;20229;-68
2023/08/22 03:31:12;;;;;;;4.82;3.00;;;;;;;26.19;46.54;99985.63;10535523;28;20673;-68
2023/08/22 03:36:14;;;;;;;5.65;3.10;;;;;;;26.80;45.50;99989.03;10540328;28;20229;-71
2023/08/22 03:41:15;;;;;;;7.88;3.30;;;;;;;26.82;45.44;99984.84;10531461;28;20855;-67
2023/08/22 03:46:17;;;;;;;6.60;3.72;;;;;;;26.64;45.88;99975.41;10534101;28;20602;-67
2023/08/22 03:51:36;;;;;;;7.22;4.32;;;;;;;25.99;47.27;100000.28;10533095;28;21015;-68
2023/08/22 03:56:38;;;;;;;5.30;3.00;;;;;;;26.30;46.54;99989.13;10540719;28;20318;-68
2023/08/22 04:01:40;;;;;;;6.60;3.53;;;;;;;26.79;45.81;99976.38;10519949;28;20244;-68
2023/08/22 04:06:41;;;;;;;5.35;3.90;;;;;;;27.01;45.58;99978.63;10538074;28;21745;-68
2023/08/22 04:11:43;;;;;;;4.55;3.72;;;;;;;26.57;46.60;99983.97;10541369;27;20241;-68
2023/08/22 04:16:45;;;;;;;7.57;3.25;;;;;;;26.09;46.74;99999.41;10543046;27;20234;-68
2023/08/22 04:21:47;;;;;;;7.15;3.00;;;;;;;24.04;49.75;100027.84;10541914;28;21114;-68
2023/08/22 04:26:48;;;;;;;4.72;2.92;;;;;;;23.44;51.30;100047.25;10542847;28;20228;-68
2023/08/22 04:31:51;;;;;;;7.35;3.95;;;;;;;23.22;52.42;100031.81;10543689;28;20309;-67
2023/08/22 04:36:52;;;;;;;4.43;3.75;;;;;;;25.62;47.88;99988.66;10549112;27;20261;-68
2023/08/22 04:41:54;;;;;;;5.05;3.78;;;;;;;25.66;47.77;100002.63;10545194;27;20226;-67
2023/08/22 04:46:56;;;;;;;5.03;3.47;;;;;;;24.14;50.51;100050.56;10546696;27;20228;-67
2023/08/22 04:51:58;;;;;;;6.80;4.38;;;;;;;24.03;50.03;100067.22;10543096;28;20250;-67
2023/08/22 04:57:00;;;;;;;5.00;3.92;;;;;;;26.02;46.84;100008.75;10545665;27;20226;-68
2023/08/22 05:02:02;;;;;;;6.40;3.25;;;;;;;23.89;50.38;100061.44;10540126;27;20337;-67
2023/08/22 05:07:04;;;;;;;4.25;3.60;;;;;;;26.19;46.73;100016.59;10546975;27;20287;-67
2023/08/22 05:12:06;;;;;;;7.25;3.40;;;;;;;26.00;46.87;100023.84;10540700;28;20693;-68
2023/08/22 05:17:07;;;;;;;4.20;3.38;;;;;;;26.05;46.48;100026.56;10542992;28;22411;-68
2023/08/22 05:22:09;;;;;;;4.95;3.90;;;;;;;26.35;46.33;100014.59;10539757;28;20230;-68
2023/08/22 05:27:13;;;;;;;4.15;3.75;;;;;;;25.90;46.90;100032.13;10537229;27;20487;-67
2023/08/22 05:32:15;;;;;;;5.90;3.92;;;;;;;26.89;45.15;100001.00;10541796;28;20226;-68
2023/08/22 05:37:17;;;;;;;5.63;3.25;;;;;;;27.23;44.87;100000.94;10547087;28;20240;-67
2023/08/22 05:42:18;;;;;;;4.07;3.42;;;;;;;27.88;44.29;99993.31;10540005;27;20225;-67
2023/08/22 05:47:20;;;;;;;4.90;4.43;;;;;;;27.72;44.74;99985.28;10544867;28;20222;-68
2023/08/22 05:52:25;;;;;;;7.63;4.60;;;;;;;26.89;45.99;100025.69;10537770;27;20225;-67
2023/08/22 05:57:28;;;;;;;4.85;4.32;;;;;;;25.37;49.02;100036.16;10534360;28;20245;-69
2023/08/22 06:02:29;;;;;;;6.28;4.40;;;;;;;26.79;46.70;100004.69;10526071;27;20239;-68
2023/08/22 06:07:31;;;;;;;6.53;4.03;;;;;;;26.49;47.35;100027.69;10538498;27;20234;-68
2023/08/22 06:12:33;;;;;;;7.03;4.63;;;;;;;27.84;45.68;99993.88;10543554;27;20234;-68
2023/08/22 06:17:34;;;;;;;6.65;5.10;;;;;;;27.99;45.67;100016.81;10541692;27;20230;-67
2023/08/22 06:22:36;;;;;;;6.57;4.75;;;;;;;27.52;45.97;100019.28;10535246;27;20319;-68
2023/08/22 06:27:38;;;;;;;6.05;5.00;;;;;;;28.11;45.71;100011.66;10539753;28;20656;-68
2023/08/22 06:32:40;;;;;;;11.10;5.32;;;;;;;27.98;46.23;100015.97;10541929;28;20230;-69
2023/08/22 06:37:42;;;;;;;7.43;5.30;;;;;;;28.13;45.38;100019.63;10541689;28;20238;-68
2023/08/22 06:42:44;;;;;;;12.02;5.47;;;;;;;27.68;45.91;100029.00;10541942;27;20237;-67
2023/08/22 06:47:46;;;;;;;8.07;5.88;;;;;;;27.92;45.60;100013.56;10543201;28;20229;-67
2023/08/22 06:52:48;;;;;;;7.38;5.82;;;;;;;27.82;46.46;100028.31;10535998;28;20777;-68
2023/08/22 06:57:50;;;;;;;7.65;5.70;;;;;;;26.49;48.81;100036.72;10542022;27;21293;-69
2023/08/22 07:02:51;;;;;;;7.47;6.13;;;;;;;27.84;45.77;100034.31;10542241;28;20390;-68
2023/08/22 07:07:53;;;;;;;7.90;6.32;;;;;;;25.52;49.81;100067.31;10540357;28;20237;-68
2023/08/22 07:12:55;;;;;;;7.78;6.00;;;;;;;26.48;48.52;100065.25;10544181;28;20229;-68
2023/08/22 07:17:57;;;;;;;7.97;6.22;;;;;;;26.66;48.08;100049.22;10536455;28;20234;-69
2023/08/22 07:22:58;;;;;;;8.05;6.20;;;;;;;26.91;48.04;100057.25;10537885;28;20698;-67
2023/08/22 07:28:00;;;;;;;11.07;5.70;;;;;;;27.57;47.10;100041.22;10535962;28;20367;-68
2023/08/22 07:33:02;;;;;;;7.07;5.90;;;;;;;26.63;48.29;100056.09;10533585;28;20253;-67
2023/08/22 07:38:04;;;;;;;7.00;5.32;;;;;;;28.33;45.76;100018.53;10531826;28;20720;-68
2023/08/22 07:43:06;;;;;;;8.80;5.25;;;;;;;28.46;45.75;100020.50;10540583;28;20780;-68
2023/08/22 07:48:09;;;;;;;5.43;4.13;;;;;;;26.67;46.18;100086.50;10552612;27;20237;-68
2023/08/22 07:53:11;;;;;;;4.85;3.67;;;;;;;28.17;43.93;100034.41;10547419;27;20794;-68
2023/08/22 07:58:15;;;;;;;6.55;4.75;;;;;;;27.55;45.69;100040.69;10547489;28;20245;-68
2023/08/22 08:03:17;;;;;;;5.35;4.20;;;;;;;26.75;45.74;100083.19;10547321;28;20321;-68
2023/08/22 08:08:19;;;;;;;4.85;3.88;;;;;;;27.79;43.96;100068.19;10546257;28;20231;-68
2023/08/22 08:13:21;;;;;;;7.65;4.30;;;;;;;27.93;43.29;100057.28;10543180;28;20321;-68
2023/08/22 08:18:23;;;;;;;5.97;4.10;;;;;;;27.27;44.81;100084.41;10544692;28;20784;-69
2023/08/22 08:23:24;;;;;;;4.80;3.65;;;;;;;27.80;44.44;100064.34;10544142;27;20234;-68
2023/08/22 08:28:26;;;;;;;3.97;3.35;;;;;;;29.02;42.50;100059.25;10543676;27;20325;-68
2023/08/22 08:33:28;;;;;;;3.30;2.80;;;;;;;28.51;43.28;100044.34;10526712;28;20226;-68
2023/08/22 08:38:30;;;;;;;4.20;3.00;;;;;;;28.61;42.54;100057.97;10548335;27;20329;-68
2023/08/22 08:43:32;;;;;;;5.57;3.10;;;;;;;27.48;43.32;100068.53;10543585;28;20259;-70
2023/08/22 08:48:36;;;;;;;3.28;2.60;;;;;;;27.52;42.00;100085.25;10543664;27;20329;-69
2023/08/22 08:53:39;;;;;;;3.60;1.92;;;;;;;26.80;40.61;100080.41;10546374;27;20695;-67
2023/08/22 08:58:41;;;;;;;5.28;2.20;;;;;;;29.45;37.98;100034.19;10547576;28;20586;-68
2023/08/22 09:03:44;;;;;;;3.33;2.13;;;;;;;29.05;39.88;100056.69;10543839;27;20345;-69
2023/08/22 09:09:10;;;;;;;3.95;1.95;;;;;;;28.71;39.93;100037.72;10531372;28;20324;-69
2023/08/22 09:14:17;;;;;;;4.20;2.90;;;;;;;28.36;41.68;100054.50;10541771;28;20297;-70
2023/08/22 09:19:22;;;;;;;6.82;2.75;;;;;;;29.12;40.76;100037.03;10537951;28;20222;-70
2023/08/22 09:24:24;;;;;;;5.20;3.20;;;;;;;28.83;40.92;100035.34;10539258;28;20232;-70
2023/08/22 09:29:33;;;;;;;3.95;3.45;;;;;;;28.70;41.59;100033.38;10538290;27;20242;-70
2023/08/22 09:34:35;;;;;;;6.38;3.10;;;;;;;28.82;41.88;100032.88;10543355;27;20234;-70
2023/08/22 09:39:40;;;;;;;4.00;2.90;;;;;;;28.49;41.14;100050.19;10544467;28;20229;-70
2023/08/22 09:44:42;;;;;;;4.65;2.80;;;;;;;29.15;41.30;100048.28;10543254;27;21045;-70
2023/08/22 09:49:50;;;;;;;3.28;2.95;;;;;;;28.83;41.39;100037.25;10537298;28;20258;-70
2023/08/22 09:54:52;;;;;;;3.63;2.50;;;;;;;29.60;39.54;100027.59;10540832;27;20268;-70
2023/08/22 09:59:55;;;;;;;3.58;2.00;;;;;;;30.17;39.55;100016.16;10544330;27;20325;-68
2023/08/22 10:04:57;;;;;;;6.10;2.67;;;;;;;29.51;39.48;100046.75;10536701;28;20833;-67
2023/08/22 10:09:58;;;;;;;4.40;2.75;;;;;;;29.04;39.88;100012.94;10539442;27;20256;-67
2023/08/22 10:15:05;;;;;;;3.38;2.50;;;;;;;28.21;41.34;100038.22;10538302;28;20721;-68
2023/08/22 10:20:11;;;;;;;5.60;2.58;;;;;;;29.55;40.07;100003.66;10536038;27;20672;-65
2023/08/22 10:25:13;;;;;;;2.67;2.22;;;;;;;29.10;39.32;100034.56;10537747;28;20347;-67
2023/08/22 10:30:15;;;;;;;2.03;1.80;;;;;;;30.08;39.36;99988.50;10538876;28;20297;-68
2023/08/22 10:35:17;;;;;;;2.33;1.73;;;;;;;30.75;38.65;99978.56;10539779;27;20222;-68
2023/08/22 10:40:26;;;;;;;4.35;2.00;;;;;;;30.89;38.28;99975.69;10543219;28;20242;-68
2023/08/22 10:45:37;;;;;;;7.72;2.50;;;;;;;29.98;38.09;100003.31;10536888;28;20226;-69
2023/08/22 10:50:41;;;;;;;2.25;1.90;;;;;;;30.36;38.86;99980.09;10538348;28;20712;-66
2023/08/22 10:55:43;;;;;;;2.70;2.00;;;;;;;30.29;38.92;99985.25;10539506;27;20253;-68
2023/08/22 11:06:21;;;;;;;4.80;2.10;;;;;;;29.25;40.06;99938.97;10486587;27;20795;-68
2023/08/22 11:11:23;;;;;;;3.80;2.17;;;;;;;30.00;39.92;99964.38;10408000;28;20823;-67
2023/08/22 11:16:24;;;;;;;4.65;2.40;;;;;;;28.93;41.35;99963.56;10423803;28;20624;-68
2023/08/22 11:21:26;;;;;;;3.00;2.08;;;;;;;28.74;40.62;99993.09;10452728;28;20231;-67
2023/08/22 11:26:28;;;;;;;4.00;2.40;;;;;;;29.81;39.51;99943.31;10455609;28;20249;-67
2023/08/22 11:31:30;;;;;;;3.28;2.30;;;;;;;28.32;40.52;100001.19;10453661;28;20237;-67
2023/08/22 11:36:33;;;;;;;3.03;2.10;;;;;;;28.72;40.81;99987.88;10453129;28;20338;-67
2023/08/22 11:41:35;;;;;;;3.03;1.83;;;;;;;30.85;39.47;99958.94;10453846;28;20238;-67
2023/08/22 11:46:37;;;;;;;4.25;2.33;;;;;;;30.86;38.56;99974.41;10454853;28;20289;-67
2023/08/22 11:51:42;;;;;;;4.05;2.28;;;;;;;30.47;40.27;99961.34;10453159;28;20239;-68
2023/08/22 11:56:44;;;;;;;3.03;1.80;;;;;;;30.31;38.77;99981.03;10453752;28;20326;-68
2023/08/22 12:01:48;;;;;;;2.75;2.13;;;;;;;29.74;38.84;99977.94;10451706;28;20265;-68
2023/08/22 12:06:59;;;;;;;4.15;2.10;;;;;;;30.80;39.03;99950.81;10455296;28;20313;-67
2023/08/22 12:12:27;;;;;;;2.97;2.17;;;;;;;31.79;37.65;99916.47;10452758;28;20224;-67
2023/08/22 12:17:29;;;;;;;2.47;1.98;;;;;;;31.95;37.79;99916.78;10422776;28;20235;-67
2023/08/22 12:22:31;;;;;;;3.83;2.03;;;;;;;30.12;39.32;99964.66;10425280;28;20646;-67
2023/08/22 12:27:32;;;;;;;4.53;1.98;;;;;;;30.59;39.60;99950.56;10420074;28;20247;-67
2023/08/22 12:32:34;;;;;;;3.63;2.40;;;;;;;30.54;38.84;99951.50;10426428;28;20735;-68
2023/08/22 12:37:40;;;;;;;5.40;2.22;;;;;;;30.99;39.30;99961.66;10426327;28;20249;-67
2023/08/22 12:42:41;;;;;;;3.00;2.10;;;;;;;31.06;38.60;99942.66;10423516;28;20232;-68
2023/08/22 12:47:43;;;;;;;3.10;2.10;;;;;;;31.92;38.22;99940.41;10424274;28;20237;-68
2023/08/22 12:52:45;;;;;;;4.30;2.20;;;;;;;31.50;37.97;99945.56;10424681;28;20247;-67
2023/08/22 12:57:47;;;;;;;2.50;2.10;;;;;;;31.61;37.12;99962.66;10422777;28;20849;-68
2023/08/22 13:02:50;;;;;;;7.25;2.22;;;;;;;32.15;37.17;99918.06;10422462;28;20240;-67
2023/08/22 13:07:52;;;;;;;5.13;2.13;;;;;;;31.80;36.71;99935.50;10422127;28;20237;-67
2023/08/22 13:12:54;;;;;;;2.60;1.90;;;;;;;31.83;37.70;99923.81;10423575;28;20902;-67
2023/08/22 13:17:56;;;;;;;2.85;1.85;;;;;;;31.34;37.27;99962.59;10420237;28;20623;-67
2023/08/22 13:22:57;;;;;;;2.80;2.30;;;;;;;32.31;36.08;99929.47;10426088;28;21110;-67
2023/08/22 13:27:59;;;;;;;4.03;2.10;;;;;;;32.28;36.26;99944.78;10422324;28;20328;-67
2023/08/22 13:33:01;;;;;;;4.65;2.20;;;;;;;31.46;36.45;99959.22;10426726;28;20602;-67
2023/08/22 13:38:03;;;;;;;4.97;2.58;;;;;;;31.72;36.34;99950.94;10428144;28;20322;-67
2023/08/22 13:43:04;;;;;;;4.95;2.25;;;;;;;32.25;36.66;99942.66;10430447;28;20235;-67
2023/08/22 13:48:06;;;;;;;2.50;2.00;;;;;;;32.08;35.86;99929.63;10428203;28;20275;-67
2023/08/22 13:53:08;;;;;;;3.22;2.15;;;;;;;32.56;35.57;99933.31;10429002;28;20231;-68
2023/08/22 13:58:10;;;;;;;2.75;2.17;;;;;;;32.00;36.56;99902.78;10427034;28;20232;-67
2023/08/22 14:03:11;;;;;;;4.03;2.40;;;;;;;32.24;35.48;99943.78;10426477;28;20828;-67
2023/08/22 14:08:14;;;;;;;4.13;2.05;;;;;;;31.18;35.78;99922.72;10427961;28;20235;-67
2023/08/22 14:13:15;;;;;;;6.43;2.20;;;;;;;33.56;34.61;99920.78;10429509;28;20327;-68
2023/08/22 14:18:17;;;;;;;5.90;2.08;;;;;;;32.91;35.03;99924.88;10427583;28;20236;-67
2023/08/22 14:23:19;;;;;;;3.65;1.92;;;;;;;31.28;36.27;99961.09;10425972;28;20246;-67
2023/08/22 14:28:20;;;;;;;2.92;1.85;;;;;;;33.26;35.59;99919.97;10428394;28;20235;-67
2023/08/22 14:33:22;;;;;;;3.08;2.25;;;;;;;32.28;36.18;99919.88;10426737;28;20243;-67
2023/08/22 14:38:24;;;;;;;2.50;2.08;;;;;;;31.49;36.92;99941.16;10425751;28;20821;-67
2023/08/22 14:43:29;;;;;;;2.45;1.92;;;;;;;33.10;35.66;99916.19;10428287;28;20762;-67
2023/08/22 14:48:31;;;;;;;13.13;2.47;;;;;;;31.82;37.20;99935.22;10425409;28;20258;-67
2023/08/22 14:53:32;;;;;;;3.17;2.05;;;;;;;33.04;35.07;99892.56;10424897;28;20227;-67
2023/08/22 14:58:44;;;;;;;3.58;2.15;;;;;;;32.31;35.94;99913.69;10425985;28;23822;-67
2023/08/22 15:03:46;;;;;;;4.88;2.10;;;;;;;33.83;34.69;99879.75;10425826;28;20231;-67
2023/08/22 15:08:48;;;;;;;3.50;2.38;;;;;;;32.97;35.47;99931.88;10422113;28;20263;-67
2023/08/22 15:13:50;;;;;;;3.60;2.28;;;;;;;33.20;35.69;99904.72;10424386;28;20318;-67
2023/08/22 15:18:52;;;;;;;2.90;2.08;;;;;;;33.20;35.33;99918.56;10425167;28;20244;-67
2023/08/22 15:23:54;;;;;;;3.25;2.30;;;;;;;32.24;36.60;99952.09;10423147;28;20809;-67
2023/08/22 15:28:55;;;;;;;2.35;2.15;;;;;;;32.02;36.18;99908.84;10426157;28;20300;-67
2023/08/22 15:33:57;;;;;;;3.25;2.20;;;;;;;32.16;36.08;99912.22;10426663;28;20574;-67
2023/08/22 15:38:58;;;;;;;2.67;2.08;;;;;;;32.11;35.94;99937.28;10425919;28;20553;-67
2023/08/22 15:44:00;;;;;;;5.40;2.40;;;;;;;33.40;34.73;99886.44;10424696;28;20238;-67
2023/08/22 15:49:04;;;;;;;5.00;2.45;;;;;;;32.25;35.55;99932.44;10425762;28;20231;-68
2023/08/22 15:54:06;;;;;;;3.65;2.63;;;;;;;33.19;35.23;99892.78;10432300;28;20224;-67
2023/08/22 15:59:08;;;;;;;5.72;2.90;;;;;;;33.09;35.20;99914.53;10430733;28;20227;-68
2023/08/22 16:04:09;;;;;;;4.00;2.40;;;;;;;32.41;34.94;99935.47;10431587;28;20845;-67
2023/08/22 16:09:11;;;;;;;2.67;2.33;;;;;;;33.62;34.76;99885.34;10428761;28;20235;-67
2023/08/22 16:14:13;;;;;;;3.95;2.50;;;;;;;33.35;34.22;99906.06;10431582;28;20224;-67
2023/08/22 16:19:15;;;;;;;4.80;2.22;;;;;;;33.07;35.12;99917.63;10429450;28;20235;-68
2023/08/22 16:24:17;;;;;;;2.80;2.20;;;;;;;33.19;35.41;99903.09;10436042;28;20242;-67
2023/08/22 16:29:19;;;;;;;3.17;2.40;;;;;;;33.54;34.83;99903.66;10430195;28;20240;-67
2023/08/22 16:34:20;;;;;;;3.80;2.72;;;;;;;32.86;35.41;99906.47;10432049;28;20224;-68
2023/08/22 16:39:22;;;;;;;3.28;2.50;;;;;;;33.21;36.08;99895.22;10426930;28;20602;-68
2023/08/22 16:44:25;;;;;;;4.82;2.17;;;;;;;32.53;35.91;99920.94;10432174;28;20232;-68
2023/08/22 16:49:26;;;;;;;2.95;2.22;;;;;;;32.76;35.84;99916.00;10430729;28;20223;-65
2023/08/22 16:54:28;;;;;;;4.40;2.05;;;;;;;32.42;35.96;99930.75;10432521;28;20231;-68
2023/08/22 16:59:29;;;;;;;4.93;2.50;;;;;;;31.68;37.00;99902.97;10423218;28;20231;-68
2023/08/22 17:04:31;;;;;;;4.72;2.67;;;;;;;32.76;36.12;99893.84;10422757;28;20326;-67
2023/08/22 17:09:33;;;;;;;3.75;2.38;;;;;;;33.07;35.77;99881.59;10429531;28;20242;-68
2023/08/22 17:14:34;;;;;;;3.67;2.60;;;;;;;32.76;36.26;99920.72;10427341;28;20715;-67
2023/08/22 17:19:36;;;;;;;2.78;2.42;;;;;;;31.88;37.08;99918.13;10431639;28;20327;-67
2023/08/22 17:24:38;;;;;;;4.05;2.38;;;;;;;32.10;37.09;99935.66;10428221;28;20238;-66
2023/08/22 17:29:39;;;;;;;3.92;2.40;;;;;;;31.62;37.39;99933.88;10423113;28;20231;-67
2023/08/22 17:34:41;;;;;;;4.40;2.35;;;;;;;31.72;37.86;99894.81;10430821;28;20731;-67
2023/08/22 17:39:43;;;;;;;3.80;2.90;;;;;;;30.45;38.84;99903.69;10428835;28;20235;-67
2023/08/22 17:44:46;;;;;;;3.97;2.40;;;;;;;32.64;35.81;99913.91;10427444;28;20585;-66
2023/08/22 17:49:47;;;;;;;6.18;2.60;;;;;;;31.51;37.35;99933.34;10380156;28;20814;-69
2023/08/22 17:54:49;;;;;;;3.42;2.40;;;;;;;29.85;38.86;99926.94;10428709;28;20232;-68
2023/08/22 17:59:51;;;;;;;5.30;2.40;;;;;;;31.31;37.50;99907.94;10428487;28;20359;-68
2023/08/22 18:04:53;;;;;;;3.67;2.25;;;;;;;29.78;38.64;99954.94;10427862;28;20626;-69
2023/08/22 18:09:55;;;;;;;4.68;2.75;;;;;;;30.61;37.95;99904.91;10424178;28;20255;-69
2023/08/22 18:14:57;;;;;;;6.28;2.88;;;;;;;29.78;39.24;99932.88;10431569;28;20243;-69
2023/08/22 18:19:59;;;;;;;4.95;2.47;;;;;;;30.00;38.65;99904.50;10428071;28;20342;-69
2023/08/22 18:25:03;;;;;;;4.10;2.50;;;;;;;29.20;39.88;99912.38;10425674;28;20224;-68
2023/08/22 18:30:06;;;;;;;3.42;2.65;;;;;;;30.02;39.10;99893.16;10433841;28;20338;-69
2023/08/22 18:35:08;;;;;;;5.80;3.28;;;;;;;29.97;39.78;99899.59;10426492;28;20240;-69
2023/08/22 18:40:11;;;;;;;3.90;2.50;;;;;;;29.05;40.76;99935.50;10428362;28;20873;-68
2023/08/22 18:45:12;;;;;;;5.38;2.92;;;;;;;28.53;41.07;99949.38;10423302;28;20228;-68
2023/08/22 18:50:14;;;;;;;3.97;2.53;;;;;;;28.14;41.35;99938.72;10428750;28;20615;-68
2023/08/22 18:55:16;;;;;;;5.72;3.13;;;;;;;28.20;41.50;99923.81;10384671;28;20314;-70
2023/08/22 19:00:19;;;;;;;5.80;3.08;;;;;;;27.84;41.75;99936.16;10427757;28;20208;-71
2023/08/22 19:05:21;;;;;;;4.10;2.97;;;;;;;27.04;42.90;99967.06;10424433;28;20240;-72
2023/08/22 19:10:23;;;;;;;4.90;2.80;;;;;;;27.91;41.32;99935.78;10429058;28;20223;-71
2023/08/22 19:15:25;;;;;;;4.90;2.47;;;;;;;27.61;41.57;99948.81;10424629;28;20295;-72
2023/08/22 19:20:26;;;;;;;3.00;2.70;;;;;;;28.58;40.29;99941.03;10425123;28;20829;-72
2023/08/22 19:25:28;;;;;;;3.10;2.33;;;;;;;27.25;42.02;99973.19;10429677;28;20285;-71
2023/08/22 19:30:31;;;;;;;5.75;2.75;;;;;;;26.80;42.44;99981.59;10432406;28;20211;-71
2023/08/22 19:35:39;;;;;;;3.58;2.35;;;;;;;27.74;41.29;99965.72;10435447;28;20232;-71
2023/08/22 19:40:42;;;;;;;2.65;2.10;;;;;;;28.35;39.75;99991.53;10436303;28;20673;-67
2023/08/22 19:45:44;;;;;;;4.00;2.38;;;;;;;28.58;39.26;100009.03;10431012;28;20820;-66
2023/08/22 19:50:46;;;;;;;4.35;2.67;;;;;;;28.57;39.90;99982.63;10433422;28;20323;-66
2023/08/22 19:55:49;;;;;;;3.50;2.60;;;;;;;27.65;40.96;100013.09;10425433;28;20814;-67
2023/08/22 20:00:53;;;;;;;3.78;2.30;;;;;;;27.88;40.37;100004.31;10430919;28;20322;-66
2023/08/22 20:06:00;;;;;;;5.28;2.60;;;;;;;27.72;40.62;100006.41;10433317;28;20224;-66
2023/08/22 20:11:01;;;;;;;4.93;2.55;;;;;;;27.46;40.82;100015.81;10429775;28;20731;-66
2023/08/22 20:16:03;;;;;;;4.40;2.35;;;;;;;27.10;41.24;100007.09;10432250;28;20277;-66
2023/08/22 20:21:05;;;;;;;4.28;2.60;;;;;;;26.78;41.95;100015.94;10434191;28;20718;-67
2023/08/22 20:26:06;;;;;;;3.25;2.30;;;;;;;26.95;41.28;100005.34;10430572;28;20265;-66
2023/08/22 20:31:08;;;;;;;4.45;2.42;;;;;;;26.65;41.42;100009.16;10431148;28;20458;-66
2023/08/22 20:36:12;;;;;;;5.03;2.67;;;;;;;26.26;41.78;100015.50;10429304;28;20236;-66
2023/08/22 20:41:14;;;;;;;3.85;2.42;;;;;;;26.64;41.05;100026.75;10432999;28;20318;-66
2023/08/22 20:46:15;;;;;;;4.15;2.67;;;;;;;27.20;40.41;100015.22;10427404;28;20986;-66
2023/08/22 20:51:17;;;;;;;5.32;2.78;;;;;;;26.74;41.06;100016.50;10432667;28;20737;-66
2023/08/22 20:56:20;;;;;;;3.40;2.35;;;;;;;27.29;41.18;99996.22;10428120;28;20734;-66
2023/08/22 21:01:21;;;;;;;3.78;2.60;;;;;;;26.39;42.53;100037.59;10427483;28;20232;-67
2023/08/22 21:06:23;;;;;;;5.22;3.10;;;;;;;27.48;41.18;100002.59;10427213;28;20792;-66
2023/08/22 21:11:25;;;;;;;4.00;2.40;;;;;;;26.71;42.57;100024.47;10426861;28;20318;-66
2023/08/22 21:16:27;;;;;;;3.35;2.28;;;;;;;25.75;43.21;100036.56;10428956;28;20273;-66
2023/08/22 21:21:31;;;;;;;4.93;3.00;;;;;;;26.86;41.92;100015.31;10432685;28;20239;-66
2023/08/22 21:26:35;;;;;;;4.00;2.58;;;;;;;27.62;40.52;100013.66;10429212;28;20307;-66
2023/08/22 21:31:37;;;;;;;4.07;3.22;;;;;;;25.73;42.77;100048.94;10426215;28;20383;-66
2023/08/22 21:36:38;;;;;;;4.38;3.13;;;;;;;25.84;42.91;100042.28;10428299;28;20236;-66
2023/08/22 21:41:40;;;;;;;4.20;2.80;;;;;;;24.48;44.59;100065.72;10427470;28;20286;-66
2023/08/22 21:46:42;;;;;;;3.70;3.03;;;;;;;27.12;41.57;99970.00;10425130;28;20901;-66
2023/08/22 21:51:44;;;;;;;5.38;3.65;;;;;;;26.70;41.64;100001.69;10423499;28;20259;-66
2023/08/22 21:56:46;;;;;;;4.90;3.08;;;;;;;25.89;41.60;100068.88;10427074;28;20446;-66
2023/08/22 22:01:47;;;;;;;4.20;3.35;;;;;;;25.46;42.60;100059.13;10420249;28;20434;-66
2023/08/22 22:06:49;;;;;;;3.22;2.95;;;;;;;25.00;43.76;100063.81;10332842;28;20229;-66
2023/08/22 22:11:51;;;;;;;3.00;2.63;;;;;;;25.86;42.79;100031.88;10325121;28;20248;-66
2023/08/22 22:16:52;;;;;;;3.38;2.70;;;;;;;25.52;42.88;100056.38;10304630;28;20340;-66
2023/08/22 22:21:54;;;;;;;8.88;2.90;;;;;;;27.22;40.88;100026.78;10312787;28;20237;-66
2023/08/22 22:26:56;;;;;;;5.05;3.00;;;;;;;25.44;43.11;100080.50;10338366;28;20263;-67
2023/08/22 22:31:58;;;;;;;4.00;2.70;;;;;;;25.35;42.94;100068.44;10339292;28;20309;-66
2023/08/22 22:36:59;;;;;;;7.20;3.42;;;;;;;26.69;41.78;100007.50;10339874;28;20233;-65
2023/08/22 22:42:01;;;;;;;4.10;3.05;;;;;;;25.42;43.34;100054.47;10337640;28;20237;-64
2023/08/22 22:47:03;;;;;;;5.78;3.50;;;;;;;26.37;42.51;100009.66;10340384;28;20245;-64
2023/08/22 22:52:04;;;;;;;4.97;3.63;;;;;;;25.99;42.53;100016.72;10343782;28;20348;-64
2023/08/22 22:57:06;;;;;;;4.65;3.40;;;;;;;25.50;43.21;100055.81;10339311;28;20234;-65
2023/08/22 23:02:08;;;;;;;6.03;3.50;;;;;;;24.55;43.75;100069.00;10343157;28;20233;-65
2023/08/22 23:07:10;;;;;;;4.20;3.47;;;;;;;25.44;42.95;100055.84;10428409;28;20235;-65
2023/08/22 23:12:12;;;;;;;5.05;3.30;;;;;;;25.91;42.30;100036.50;10420287;28;20342;-64
2023/08/22 23:17:17;;;;;;;8.65;3.65;;;;;;;25.63;43.18;100009.47;10424709;28;20242;-65
2023/08/22 23:22:18;;;;;;;6.10;3.15;;;;;;;25.56;42.71;100033.63;10422991;28;20239;-65
2023/08/22 23:27:20;;;;;;;3.58;3.10;;;;;;;26.08;42.26;100014.19;10425621;28;20235;-65